Time;durP1;ratioP1;P1;durP2;ratioP2;P2;SDS_P1;SDS_P2;PMS_P1;PMS_P2;Temp;Humidity;BMP_temperature;BMP_pressure;BME280_temperature;BME280_humidity;BME280_pressure;Samples;Min_cycle;Max_cycle;Signal;HPM_P1;HPM_P2
2023/12/03 00:01:54;;;;;;;17.77;10.77;;;1.30;99.90;;;;;;5001426;28;20025;-77
2023/12/03 00:04:20;;;;;;;15.90;10.00;;;1.30;99.90;;;;;;5004103;28;20128;-76
2023/12/03 00:06:46;;;;;;;18.25;9.60;;;1.20;99.90;;;;;;5008375;28;20556;-78
2023/12/03 00:09:16;;;;;;;18.67;9.55;;;1.20;99.90;;;;;;5006166;28;20041;-77
2023/12/03 00:11:42;;;;;;;21.30;10.88;;;1.20;99.90;;;;;;5017578;28;20053;-76
2023/12/03 00:14:08;;;;;;;16.92;10.02;;;1.20;99.90;;;;;;5021248;28;20077;-77
2023/12/03 00:16:33;;;;;;;15.77;9.48;;;1.20;99.90;;;;;;5018416;28;20089;-76
2023/12/03 00:19:01;;;;;;;19.02;10.27;;;1.20;99.90;;;;;;5010535;28;20514;-78
2023/12/03 00:21:33;;;;;;;19.00;11.10;;;1.10;99.90;;;;;;5021890;28;20116;-77
2023/12/03 00:23:58;;;;;;;14.95;9.48;;;1.10;99.90;;;;;;5023622;28;20124;-77
2023/12/03 00:26:26;;;;;;;16.88;9.48;;;1.00;99.90;;;;;;5009120;28;20033;-77
2023/12/03 00:28:51;;;;;;;15.30;9.02;;;1.10;99.90;;;;;;5005141;28;20053;-76
2023/12/03 00:31:17;;;;;;;16.50;9.73;;;1.10;99.90;;;;;;5006157;28;20053;-77
2023/12/03 00:33:43;;;;;;;16.10;10.07;;;1.10;99.90;;;;;;4999604;28;20188;-77
2023/12/03 00:36:09;;;;;;;14.88;8.65;;;1.00;99.90;;;;;;4975901;28;20182;-77
2023/12/03 00:38:35;;;;;;;11.48;7.38;;;1.00;99.90;;;;;;5005858;28;20388;-75
2023/12/03 00:41:00;;;;;;;15.30;8.43;;;1.00;99.90;;;;;;5016104;28;20045;-78
2023/12/03 00:43:26;;;;;;;13.43;8.23;;;1.00;99.90;;;;;;5019380;28;20487;-76
2023/12/03 00:45:53;;;;;;;11.27;7.47;;;1.00;99.90;;;;;;5001745;28;20052;-77
2023/12/03 00:48:19;;;;;;;13.00;7.75;;;0.80;99.90;;;;;;5028042;28;20041;-78
2023/12/03 00:50:45;;;;;;;12.10;7.35;;;0.80;99.90;;;;;;5001973;28;20064;-77
2023/12/03 00:53:13;;;;;;;12.70;7.13;;;0.80;99.90;;;;;;5026636;28;20042;-76
2023/12/03 00:55:40;;;;;;;11.43;7.45;;;0.80;99.90;;;;;;5005027;28;20045;-75
2023/12/03 00:58:06;;;;;;;13.82;7.65;;;0.80;99.90;;;;;;5008057;28;20172;-76
2023/12/03 01:00:33;;;;;;;13.27;7.05;;;0.70;99.90;;;;;;5003889;28;20041;-77
2023/12/03 01:03:02;;;;;;;10.77;6.55;;;0.70;99.90;;;;;;5021949;28;20161;-77
2023/12/03 01:05:28;;;;;;;11.63;7.03;;;0.70;99.90;;;;;;5024313;28;20053;-77
2023/12/03 01:07:57;;;;;;;11.60;7.07;;;0.60;99.90;;;;;;5009540;28;20046;-76
2023/12/03 01:10:26;;;;;;;12.07;6.75;;;0.60;99.90;;;;;;5025888;28;20034;-77
2023/12/03 01:12:52;;;;;;;9.63;6.50;;;0.70;99.90;;;;;;4994297;28;20050;-76
2023/12/03 01:15:17;;;;;;;11.20;6.28;;;0.70;99.90;;;;;;5005975;28;20412;-76
2023/12/03 01:17:43;;;;;;;11.18;6.30;;;0.70;99.90;;;;;;5010790;28;20034;-76
2023/12/03 01:20:10;;;;;;;10.20;6.03;;;0.60;99.90;;;;;;5001483;28;20116;-75
2023/12/03 01:22:36;;;;;;;9.95;5.90;;;0.60;99.90;;;;;;5004773;28;20056;-75
2023/12/03 01:25:02;;;;;;;9.90;5.55;;;0.60;99.90;;;;;;5019421;28;20034;-75
2023/12/03 01:27:27;;;;;;;9.05;5.85;;;0.60;99.90;;;;;;5003125;28;20073;-75
2023/12/03 01:29:54;;;;;;;11.77;6.03;;;0.60;99.90;;;;;;5017852;28;20156;-76
2023/12/03 01:32:22;;;;;;;9.88;5.30;;;0.70;99.90;;;;;;5026053;28;20041;-76
2023/12/03 01:34:50;;;;;;;10.63;5.82;;;0.70;99.90;;;;;;5023811;28;20416;-76
2023/12/03 01:37:18;;;;;;;10.50;5.85;;;0.60;99.90;;;;;;4993168;28;20044;-75
2023/12/03 01:39:44;;;;;;;8.57;6.20;;;0.50;99.90;;;;;;5020101;28;20044;-76
2023/12/03 01:42:10;;;;;;;9.15;5.63;;;0.40;99.90;;;;;;5008553;28;20087;-76
2023/12/03 01:44:36;;;;;;;11.70;6.68;;;0.40;99.90;;;;;;5006431;28;20231;-75
2023/12/03 01:47:03;;;;;;;10.27;6.00;;;0.50;99.90;;;;;;5018936;28;20500;-75
2023/12/03 01:49:30;;;;;;;9.23;5.70;;;0.40;99.90;;;;;;5007650;28;20042;-75
2023/12/03 01:51:56;;;;;;;9.50;6.05;;;0.80;99.90;;;;;;4989726;28;20042;-76
2023/12/03 01:54:29;;;;;;;8.27;5.53;;;0.50;99.90;;;;;;5018726;28;20034;-76
2023/12/03 01:56:55;;;;;;;10.32;6.60;;;0.30;99.90;;;;;;5025993;28;20049;-76
2023/12/03 01:59:23;;;;;;;11.80;6.68;;;0.30;99.90;;;;;;4989393;28;20175;-76
2023/12/03 02:01:49;;;;;;;9.88;5.85;;;0.20;99.90;;;;;;5008531;28;20045;-77
2023/12/03 02:04:15;;;;;;;9.10;6.07;;;0.20;99.90;;;;;;5005790;28;20076;-76
2023/12/03 02:06:40;;;;;;;14.25;6.47;;;0.20;99.90;;;;;;5004932;28;20140;-76
2023/12/03 02:09:07;;;;;;;10.05;6.28;;;0.20;99.90;;;;;;4999276;28;20416;-75
2023/12/03 02:11:34;;;;;;;10.93;6.60;;;0.10;99.90;;;;;;5020213;28;20055;-77
2023/12/03 02:14:02;;;;;;;12.02;6.22;;;0.10;99.90;;;;;;5005504;28;20038;-76
2023/12/03 02:16:30;;;;;;;9.05;5.85;;;0.00;99.90;;;;;;5019720;28;20045;-75
2023/12/03 02:18:59;;;;;;;8.73;6.23;;;-0.10;99.90;;;;;;5020894;28;20103;-75
2023/12/03 02:21:24;;;;;;;9.63;6.68;;;-0.10;99.90;;;;;;5002276;28;20045;-76
2023/12/03 02:23:53;;;;;;;12.20;6.63;;;-0.10;99.90;;;;;;5008215;28;20049;-75
2023/12/03 02:26:19;;;;;;;12.20;7.05;;;-0.20;99.90;;;;;;5003089;28;20040;-77
2023/12/03 02:28:45;;;;;;;15.98;7.32;;;-0.20;99.90;;;;;;5018796;28;20087;-76
2023/12/03 02:31:14;;;;;;;13.00;7.43;;;-0.20;99.90;;;;;;5023154;28;20132;-76
2023/12/03 02:33:46;;;;;;;13.82;6.50;;;-0.20;99.90;;;;;;5018419;28;20077;-76
2023/12/03 02:36:12;;;;;;;12.93;7.45;;;-0.20;99.90;;;;;;5019344;28;20051;-77
2023/12/03 02:38:38;;;;;;;14.35;7.47;;;-0.20;99.90;;;;;;5010801;28;20049;-76
2023/12/03 02:41:03;;;;;;;13.55;8.38;;;-0.20;99.90;;;;;;5021514;28;20061;-76
2023/12/03 02:43:29;;;;;;;13.93;7.88;;;-0.30;99.90;;;;;;5024577;28;20446;-76
2023/12/03 02:45:55;;;;;;;14.02;8.88;;;-0.30;99.90;;;;;;5016094;28;20566;-75
2023/12/03 02:48:21;;;;;;;13.27;7.45;;;-0.40;99.90;;;;;;5015439;28;20033;-76
2023/12/03 02:50:46;;;;;;;14.02;8.63;;;-0.30;99.90;;;;;;5001863;28;20045;-76
2023/12/03 02:53:12;;;;;;;11.98;8.15;;;-0.40;99.90;;;;;;5008295;28;20490;-75
2023/12/03 02:55:38;;;;;;;14.88;7.88;;;-0.50;99.90;;;;;;5007883;28;20160;-77
2023/12/03 02:58:04;;;;;;;13.57;8.93;;;-0.50;99.90;;;;;;5006156;28;20038;-76
2023/12/03 03:00:29;;;;;;;18.13;10.02;;;-0.30;99.90;;;;;;5028305;28;20044;-77
2023/12/03 03:02:55;;;;;;;15.13;9.15;;;-0.30;99.90;;;;;;5008408;28;20172;-77
2023/12/03 03:05:21;;;;;;;16.02;9.85;;;-0.40;99.90;;;;;;5006405;28;20096;-76
2023/12/03 03:07:46;;;;;;;16.83;9.73;;;-0.40;99.90;;;;;;5011510;28;20291;-76
2023/12/03 03:10:12;;;;;;;16.52;9.95;;;-0.40;99.90;;;;;;5013244;28;20117;-75
2023/12/03 03:12:39;;;;;;;14.90;10.68;;;-0.40;99.90;;;;;;5006386;28;20065;-75
2023/12/03 03:15:05;;;;;;;14.77;9.05;;;-0.40;99.90;;;;;;5007554;28;20049;-76
2023/12/03 03:17:31;;;;;;;15.32;9.27;;;-0.50;99.90;;;;;;5002288;28;20045;-75
2023/12/03 03:19:57;;;;;;;10.60;7.68;;;-0.50;99.90;;;;;;4988622;28;20060;-77
2023/12/03 03:22:25;;;;;;;11.05;8.20;;;-0.40;99.90;;;;;;5029579;28;20041;-76
2023/12/03 03:24:52;;;;;;;13.43;7.60;;;-0.50;99.90;;;;;;5025493;28;20095;-75
2023/12/03 03:27:18;;;;;;;13.25;6.68;;;-0.40;99.90;;;;;;4999721;28;20045;-75
2023/12/03 03:29:44;;;;;;;7.72;5.55;;;-0.50;99.90;;;;;;5023703;28;20038;-75
2023/12/03 03:32:09;;;;;;;10.25;5.72;;;-0.40;99.90;;;;;;5007008;28;20041;-75
2023/12/03 03:34:35;;;;;;;9.27;5.53;;;-0.40;99.90;;;;;;5022469;28;20132;-76
2023/12/03 03:37:02;;;;;;;7.78;5.85;;;-0.20;99.90;;;;;;5003639;28;20136;-77
2023/12/03 03:39:28;;;;;;;9.63;6.10;;;-0.40;99.90;;;;;;5023998;28;20049;-76
2023/12/03 03:41:57;;;;;;;8.43;5.40;;;-0.30;99.90;;;;;;5006706;28;20381;-74
2023/12/03 03:44:23;;;;;;;7.57;4.97;;;-0.20;99.90;;;;;;4998619;28;20076;-77
2023/12/03 03:46:49;;;;;;;6.43;4.60;;;-0.50;99.90;;;;;;5001839;28;20072;-77
2023/12/03 03:49:15;;;;;;;10.15;5.68;;;-0.50;99.90;;;;;;5005800;28;20033;-77
2023/12/03 03:51:41;;;;;;;9.18;5.22;;;-0.40;99.90;;;;;;4985504;28;20046;-75
2023/12/03 03:54:06;;;;;;;5.97;4.90;;;-0.40;99.90;;;;;;5028887;28;20384;-76
2023/12/03 03:56:32;;;;;;;7.88;5.20;;;-0.40;99.90;;;;;;5000822;28;20137;-75
2023/12/03 03:58:58;;;;;;;6.38;4.38;;;-0.50;99.90;;;;;;5022322;28;20026;-77
2023/12/03 04:01:24;;;;;;;5.35;4.70;;;-0.50;99.90;;;;;;4986782;28;20041;-75
2023/12/03 04:03:56;;;;;;;6.32;4.60;;;-0.50;99.90;;;;;;5028344;28;20049;-77
2023/12/03 04:06:25;;;;;;;6.57;4.60;;;-0.50;99.90;;;;;;5003485;28;20042;-76
2023/12/03 04:08:51;;;;;;;6.88;4.35;;;-0.50;99.90;;;;;;5007779;28;20045;-77
2023/12/03 04:11:16;;;;;;;7.00;4.18;;;-0.50;99.90;;;;;;5011107;28;20052;-76
2023/12/03 04:13:42;;;;;;;6.63;4.53;;;-0.50;99.90;;;;;;5006333;28;20993;-76
2023/12/03 04:16:08;;;;;;;7.22;4.78;;;-0.60;99.90;;;;;;5024568;28;20088;-76
2023/12/03 04:18:35;;;;;;;6.50;4.68;;;-0.50;99.90;;;;;;5020753;28;20756;-76
2023/12/03 04:21:01;;;;;;;5.28;4.53;;;-0.50;99.90;;;;;;5025365;28;20041;-75
2023/12/03 04:23:27;;;;;;;6.45;5.05;;;-0.50;99.90;;;;;;5004971;28;20403;-76
2023/12/03 04:25:52;;;;;;;6.25;4.63;;;-0.40;99.90;;;;;;5018926;28;20037;-78
2023/12/03 04:28:18;;;;;;;8.13;5.07;;;-0.40;99.90;;;;;;5020727;28;20049;-76
2023/12/03 04:30:45;;;;;;;8.30;5.13;;;-0.40;99.90;;;;;;5007277;28;20137;-76
2023/12/03 04:33:11;;;;;;;9.95;5.10;;;-0.40;99.90;;;;;;4997780;28;20046;-77
2023/12/03 04:35:36;;;;;;;23.80;6.82;;;-0.30;99.90;;;;;;5002382;28;20389;-75
2023/12/03 04:38:03;;;;;;;55.72;9.88;;;0.10;99.90;;;;;;5020015;28;20750;-76
2023/12/03 04:40:28;;;;;;;87.43;10.90;;;-0.20;99.90;;;;;;4990413;28;20037;-75
2023/12/03 04:42:54;;;;;;;41.03;9.80;;;-0.20;99.90;;;;;;5015237;28;20098;-75
2023/12/03 04:45:20;;;;;;;83.40;11.70;;;-0.30;99.90;;;;;;5001505;28;20144;-76
2023/12/03 04:47:45;;;;;;;47.42;11.13;;;-0.30;99.90;;;;;;4989690;28;20048;-77
2023/12/03 04:50:13;;;;;;;60.17;11.73;;;-0.30;99.90;;;;;;5003662;28;20080;-77
2023/12/03 04:52:38;;;;;;;40.35;11.68;;;-0.20;99.90;;;;;;5005645;28;20045;-77
2023/12/03 04:55:05;;;;;;;47.05;12.40;;;-0.30;99.90;;;;;;5004696;28;20042;-76
2023/12/03 04:57:31;;;;;;;29.98;11.30;;;-0.20;99.90;;;;;;5002906;28;20048;-77
2023/12/03 04:59:56;;;;;;;33.28;11.98;;;-0.20;99.90;;;;;;5007222;28;20067;-76
2023/12/03 05:02:22;;;;;;;40.45;12.55;;;-0.20;99.90;;;;;;5006663;28;20099;-76
2023/12/03 05:04:48;;;;;;;38.17;14.10;;;-0.30;99.90;;;;;;5024266;28;20044;-75
2023/12/03 05:07:13;;;;;;;23.50;12.95;;;-0.20;99.90;;;;;;5009338;28;20044;-77
2023/12/03 05:09:39;;;;;;;29.85;15.00;;;-0.10;99.90;;;;;;5022524;28;20542;-75
2023/12/03 05:12:05;;;;;;;58.45;16.40;;;-0.20;99.90;;;;;;5028238;28;20048;-75
2023/12/03 05:14:32;;;;;;;23.70;15.00;;;-0.10;99.90;;;;;;5021299;28;20103;-76
2023/12/03 05:16:58;;;;;;;36.80;17.45;;;-0.10;99.90;;;;;;5002482;28;20041;-76
2023/12/03 05:19:24;;;;;;;27.23;17.75;;;0.00;99.90;;;;;;5007271;28;20055;-76
2023/12/03 05:21:50;;;;;;;83.63;19.40;;;0.00;99.90;;;;;;5003150;28;20443;-76
2023/12/03 05:24:15;;;;;;;38.97;19.02;;;0.20;99.90;;;;;;5007758;28;20037;-76
2023/12/03 05:26:41;;;;;;;69.40;19.35;;;0.10;99.90;;;;;;5007618;28;20053;-76
2023/12/03 05:29:07;;;;;;;53.33;18.48;;;0.20;99.90;;;;;;5008401;28;20045;-76
2023/12/03 05:31:32;;;;;;;95.85;21.52;;;0.20;99.90;;;;;;5006866;28;20037;-76
2023/12/03 05:34:01;;;;;;;102.25;23.10;;;0.20;99.90;;;;;;5002829;28;20042;-75
2023/12/03 05:36:26;;;;;;;77.72;21.73;;;0.30;99.90;;;;;;5013251;28;20048;-75
2023/12/03 05:38:54;;;;;;;118.05;23.27;;;0.30;99.90;;;;;;5025640;28;20103;-75
2023/12/03 05:41:19;;;;;;;105.75;26.52;;;0.30;99.90;;;;;;5011287;28;20073;-77
2023/12/03 05:43:48;;;;;;;142.57;27.65;;;0.90;99.90;;;;;;5023732;28;20422;-76
2023/12/03 05:46:14;;;;;;;76.25;25.63;;;0.50;99.90;;;;;;5006047;28;20555;-75
2023/12/03 05:48:40;;;;;;;102.35;25.25;;;0.50;99.90;;;;;;5001350;28;20045;-75
2023/12/03 05:51:11;;;;;;;68.38;27.17;;;0.60;99.90;;;;;;5003380;28;20117;-75
2023/12/03 05:53:37;;;;;;;109.80;28.83;;;0.70;99.90;;;;;;5025301;28;20427;-74
2023/12/03 05:56:03;;;;;;;56.85;24.33;;;0.70;99.90;;;;;;5011667;28;20042;-76
2023/12/03 05:58:29;;;;;;;109.53;27.90;;;0.80;99.90;;;;;;5007945;28;20045;-76
2023/12/03 06:00:55;;;;;;;120.28;27.83;;;0.80;99.90;;;;;;5008475;28;20037;-75
2023/12/03 06:03:21;;;;;;;113.53;28.60;;;0.90;99.90;;;;;;5024624;28;20128;-75
2023/12/03 06:05:46;;;;;;;149.25;29.60;;;0.90;99.90;;;;;;5024253;28;20120;-75
2023/12/03 06:08:12;;;;;;;107.43;27.52;;;1.00;99.90;;;;;;5011216;28;20045;-75
2023/12/03 06:10:38;;;;;;;87.28;25.90;;;1.00;99.90;;;;;;5024917;28;20095;-76
2023/12/03 06:13:03;;;;;;;65.18;24.70;;;1.00;99.90;;;;;;5011185;28;20587;-76
2023/12/03 06:15:32;;;;;;;149.73;28.40;;;1.00;99.90;;;;;;5000255;28;20108;-76
2023/12/03 06:17:58;;;;;;;44.17;24.05;;;1.10;99.90;;;;;;5025266;28;20044;-76
2023/12/03 06:20:24;;;;;;;83.38;24.88;;;1.10;99.90;;;;;;5012171;28;20038;-76
2023/12/03 06:22:50;;;;;;;112.80;26.10;;;1.10;99.90;;;;;;5014835;28;20049;-75
2023/12/03 06:25:16;;;;;;;57.38;23.15;;;1.30;99.90;;;;;;5006734;28;20041;-76
2023/12/03 06:27:44;;;;;;;50.85;21.02;;;1.30;99.90;;;;;;5020335;28;20088;-76
2023/12/03 06:30:10;;;;;;;128.45;23.85;;;1.20;99.90;;;;;;5022712;28;20037;-76
2023/12/03 06:32:36;;;;;;;104.80;24.25;;;1.20;99.90;;;;;;5021581;28;20037;-76
2023/12/03 06:35:04;;;;;;;63.03;20.35;;;1.30;99.90;;;;;;5011341;28;20080;-75
2023/12/03 06:37:32;;;;;;;97.40;21.90;;;1.20;99.90;;;;;;5019726;28;20033;-76
2023/12/03 06:39:58;;;;;;;95.22;21.13;;;1.30;99.90;;;;;;5021579;28;20554;-77
2023/12/03 06:42:24;;;;;;;100.25;20.65;;;1.30;99.90;;;;;;5022468;28;20378;-76
2023/12/03 06:44:50;;;;;;;102.82;18.98;;;1.30;99.90;;;;;;5005999;28;20041;-75
2023/12/03 06:47:15;;;;;;;83.20;20.77;;;1.20;99.90;;;;;;5022151;28;20069;-75
2023/12/03 06:49:42;;;;;;;77.28;20.00;;;1.30;99.90;;;;;;4999790;28;20037;-75
2023/12/03 06:52:07;;;;;;;104.07;20.58;;;1.30;99.90;;;;;;5002166;28;20089;-76
2023/12/03 06:54:33;;;;;;;88.60;19.92;;;1.30;99.90;;;;;;5017865;28;20124;-76
2023/12/03 06:56:59;;;;;;;58.78;19.67;;;1.30;99.90;;;;;;4996960;28;20515;-76
2023/12/03 06:59:25;;;;;;;63.80;18.48;;;1.40;99.90;;;;;;5014665;28;20574;-75
2023/12/03 07:01:50;;;;;;;63.28;19.92;;;1.40;99.90;;;;;;5014349;28;20415;-74
2023/12/03 07:04:16;;;;;;;60.30;20.17;;;1.40;99.90;;;;;;4991435;28;20052;-76
2023/12/03 07:06:42;;;;;;;55.85;17.63;;;1.30;99.90;;;;;;5023090;28;20658;-76
2023/12/03 07:09:08;;;;;;;61.35;18.65;;;1.50;99.90;;;;;;5019150;28;20041;-77
2023/12/03 07:11:33;;;;;;;76.85;19.88;;;1.30;99.90;;;;;;4991008;28;20077;-76
2023/12/03 07:13:59;;;;;;;60.88;18.48;;;1.30;99.90;;;;;;5008429;28;20041;-74
2023/12/03 07:16:25;;;;;;;61.80;19.45;;;1.50;99.90;;;;;;5007677;28;20057;-75
2023/12/03 07:18:51;;;;;;;40.95;17.85;;;1.00;99.90;;;;;;5011515;28;20037;-76
2023/12/03 07:21:17;;;;;;;68.88;19.40;;;1.40;99.90;;;;;;5007554;28;20033;-76
2023/12/03 07:23:42;;;;;;;47.75;18.40;;;1.50;99.90;;;;;;5008605;28;20625;-76
2023/12/03 07:26:09;;;;;;;62.42;18.65;;;1.50;99.90;;;;;;5009538;28;20131;-77
2023/12/03 07:28:35;;;;;;;61.80;17.05;;;1.50;99.90;;;;;;4993218;28;20487;-76
2023/12/03 07:31:03;;;;;;;60.70;18.33;;;1.50;99.90;;;;;;5008005;28;20049;-77
2023/12/03 07:33:29;;;;;;;74.05;20.40;;;1.50;99.90;;;;;;4996958;28;20683;-76
2023/12/03 07:35:56;;;;;;;72.72;18.63;;;1.60;99.90;;;;;;5017705;28;20040;-76
2023/12/03 07:38:22;;;;;;;42.65;18.75;;;1.40;99.90;;;;;;5010909;28;20116;-75
2023/12/03 07:40:48;;;;;;;51.95;19.42;;;1.50;99.90;;;;;;5012503;28;20152;-76
2023/12/03 07:43:13;;;;;;;47.40;18.25;;;1.60;99.90;;;;;;5026109;28;20037;-76
2023/12/03 07:45:39;;;;;;;66.60;19.83;;;1.60;99.90;;;;;;5008805;28;20053;-77
2023/12/03 07:48:05;;;;;;;49.53;18.40;;;1.60;99.90;;;;;;4985480;28;20144;-76
2023/12/03 07:50:31;;;;;;;71.95;20.30;;;1.50;99.90;;;;;;5020838;28;20052;-75
2023/12/03 07:52:56;;;;;;;41.70;19.05;;;1.60;99.90;;;;;;5019638;28;20499;-75
2023/12/03 07:55:22;;;;;;;49.10;20.42;;;1.60;99.90;;;;;;5005934;28;20148;-75
2023/12/03 07:57:49;;;;;;;56.70;21.13;;;1.70;99.90;;;;;;5021171;28;20045;-76
2023/12/03 08:00:15;;;;;;;72.10;22.02;;;1.60;99.90;;;;;;5014145;28;20132;-76
2023/12/03 08:02:42;;;;;;;73.80;21.70;;;1.60;99.90;;;;;;5011184;28;20128;-76
2023/12/03 08:05:08;;;;;;;57.67;18.88;;;1.60;99.90;;;;;;5008439;28;20046;-75
2023/12/03 08:07:34;;;;;;;67.85;20.42;;;1.70;99.90;;;;;;5007754;28;20037;-76
2023/12/03 08:10:00;;;;;;;61.22;18.98;;;1.70;99.90;;;;;;5009091;28;20451;-77
2023/12/03 08:12:26;;;;;;;55.40;18.73;;;1.80;99.90;;;;;;5021701;28;20037;-76
2023/12/03 08:14:52;;;;;;;58.00;17.75;;;1.80;99.90;;;;;;4998712;28;20049;-76
2023/12/03 08:17:17;;;;;;;47.30;16.77;;;1.70;99.90;;;;;;5005124;28;20037;-76
2023/12/03 08:19:43;;;;;;;45.88;17.45;;;1.70;99.90;;;;;;5002812;28;20052;-75
2023/12/03 08:22:12;;;;;;;41.20;16.92;;;1.80;99.90;;;;;;4993536;28;20049;-75
2023/12/03 08:24:38;;;;;;;40.80;16.13;;;1.70;99.90;;;;;;5001316;28;20499;-76
2023/12/03 08:27:03;;;;;;;37.78;14.65;;;1.80;99.90;;;;;;4998700;28;20038;-76
2023/12/03 08:29:29;;;;;;;44.88;14.45;;;1.70;99.90;;;;;;5002027;28;20377;-76
2023/12/03 08:31:55;;;;;;;38.42;15.10;;;1.90;99.90;;;;;;4998055;28;20117;-75
2023/12/03 08:34:21;;;;;;;42.28;14.70;;;1.70;99.90;;;;;;4999514;28;20052;-75
2023/12/03 08:36:46;;;;;;;43.40;16.13;;;1.80;99.90;;;;;;4999008;28;20041;-75
2023/12/03 08:39:21;;;;;;;45.70;16.65;;;1.80;99.90;;;;;;4990017;28;21033;-76
2023/12/03 08:41:46;;;;;;;44.42;15.82;;;1.70;99.90;;;;;;5002736;28;20065;-76
2023/12/03 08:44:13;;;;;;;46.10;16.10;;;1.80;99.90;;;;;;5001413;28;20055;-76
2023/12/03 08:46:39;;;;;;;43.70;16.23;;;1.80;99.90;;;;;;4999070;28;20076;-76
2023/12/03 08:49:05;;;;;;;40.13;16.27;;;1.80;99.90;;;;;;4997700;28;20519;-75
2023/12/03 08:51:30;;;;;;;43.67;16.77;;;1.80;99.90;;;;;;4987196;28;20060;-75
2023/12/03 08:53:56;;;;;;;39.08;15.75;;;1.90;99.90;;;;;;5001456;28;20528;-76
2023/12/03 08:56:22;;;;;;;43.13;16.38;;;1.80;99.90;;;;;;5003086;28;20030;-77
2023/12/03 08:58:48;;;;;;;37.55;16.90;;;1.90;99.90;;;;;;5001222;28;20049;-75
2023/12/03 09:01:14;;;;;;;43.45;17.73;;;1.90;99.90;;;;;;4998617;28;20041;-76
2023/12/03 09:03:40;;;;;;;44.03;17.92;;;1.90;99.90;;;;;;5010037;28;20725;-76
2023/12/03 09:06:07;;;;;;;44.63;17.05;;;2.00;99.90;;;;;;5007760;28;20056;-76
2023/12/03 09:08:32;;;;;;;45.65;18.00;;;2.10;99.90;;;;;;5005490;28;20041;-75
2023/12/03 09:10:59;;;;;;;50.70;17.40;;;2.10;99.90;;;;;;5007327;28;20041;-76
2023/12/03 09:13:25;;;;;;;45.20;18.33;;;2.00;99.90;;;;;;5024803;28;20045;-75
2023/12/03 09:15:51;;;;;;;44.75;18.60;;;2.10;99.90;;;;;;5004069;28;20117;-76
2023/12/03 09:18:17;;;;;;;45.40;19.10;;;2.20;99.90;;;;;;4991650;28;20060;-76
2023/12/03 09:20:43;;;;;;;44.20;18.17;;;2.20;99.90;;;;;;5009938;28;20037;-76
2023/12/03 09:23:08;;;;;;;52.15;20.50;;;2.30;99.90;;;;;;5007699;28;20546;-76
2023/12/03 09:25:34;;;;;;;53.15;21.15;;;2.20;99.90;;;;;;4997667;28;20050;-76
2023/12/03 09:28:00;;;;;;;48.63;20.85;;;2.20;99.90;;;;;;5021855;28;20043;-76
2023/12/03 09:30:26;;;;;;;53.72;21.30;;;2.20;99.90;;;;;;5007052;28;20045;-76
2023/12/03 09:32:51;;;;;;;55.30;22.23;;;2.30;99.90;;;;;;5006872;28;20057;-76
2023/12/03 09:35:17;;;;;;;51.92;21.58;;;2.90;99.90;;;;;;4995049;28;20049;-75
2023/12/03 09:37:43;;;;;;;48.97;21.10;;;2.40;99.90;;;;;;4994799;28;20116;-76
2023/12/03 09:40:09;;;;;;;51.78;22.38;;;2.80;99.90;;;;;;5006817;28;20045;-76
2023/12/03 09:42:36;;;;;;;46.25;21.85;;;2.40;99.90;;;;;;5010118;28;20124;-75
2023/12/03 09:45:09;;;;;;;48.30;24.65;;;2.50;99.90;;;;;;4996001;28;20037;-76
2023/12/03 09:47:37;;;;;;;50.95;23.95;;;2.40;99.90;;;;;;5010241;28;20080;-77
2023/12/03 09:50:05;;;;;;;44.10;22.35;;;2.40;99.90;;;;;;5012070;28;20142;-76
2023/12/03 09:52:34;;;;;;;47.95;23.30;;;2.50;99.90;;;;;;5001629;28;20041;-76
2023/12/03 09:55:02;;;;;;;42.63;21.25;;;2.50;99.90;;;;;;5006997;28;20088;-76
2023/12/03 09:57:29;;;;;;;44.95;22.70;;;2.50;99.90;;;;;;5019304;28;20037;-77
2023/12/03 10:00:02;;;;;;;45.13;22.65;;;2.70;99.90;;;;;;5007252;28;20037;-76
2023/12/03 10:02:29;;;;;;;45.13;22.83;;;2.60;99.90;;;;;;4980941;28;21248;-76
2023/12/03 10:04:58;;;;;;;46.15;23.75;;;2.60;99.90;;;;;;5014661;28;20113;-77
2023/12/03 10:07:27;;;;;;;;;;;2.70;99.90;;;;;;4986946;28;20040;-77
2023/12/03 10:09:57;;;;;;;42.70;21.63;;;2.70;99.90;;;;;;4996715;28;19925;-77
2023/12/03 10:12:25;;;;;;;42.60;22.17;;;2.80;99.90;;;;;;4966176;28;20164;-77
2023/12/03 10:14:51;;;;;;;45.10;22.17;;;2.70;99.90;;;;;;5015802;28;20137;-77
2023/12/03 10:17:20;;;;;;;44.05;22.95;;;2.70;99.90;;;;;;5001036;28;21403;-77
2023/12/03 10:19:46;;;;;;;44.03;22.05;;;2.70;99.90;;;;;;4999479;28;20099;-77
2023/12/03 10:22:12;;;;;;;45.17;22.13;;;2.80;99.90;;;;;;4987055;28;20038;-76
2023/12/03 10:24:56;;;;;;;46.25;23.90;;;2.80;99.90;;;;;;5015988;28;20088;-77
2023/12/03 10:27:28;;;;;;;45.03;23.13;;;2.80;99.90;;;;;;4997406;28;20064;-76
2023/12/03 10:29:54;;;;;;;41.58;23.23;;;2.80;99.90;;;;;;4997776;28;20048;-76
2023/12/03 10:32:20;;;;;;;44.55;24.58;;;2.80;99.90;;;;;;5009705;28;20046;-76
2023/12/03 10:34:49;;;;;;;44.90;24.33;;;2.80;99.90;;;;;;5009521;28;20132;-77
2023/12/03 10:37:15;;;;;;;44.05;24.83;;;2.80;99.90;;;;;;5009087;28;20044;-76
2023/12/03 10:39:41;;;;;;;44.85;23.88;;;3.00;99.90;;;;;;4995937;28;20045;-77
2023/12/03 10:42:08;;;;;;;45.25;24.55;;;3.00;99.90;;;;;;4993189;28;20450;-76
2023/12/03 10:44:38;;;;;;;42.38;24.75;;;3.10;99.90;;;;;;4996010;28;20041;-77
2023/12/03 10:47:04;;;;;;;45.75;24.88;;;3.20;99.90;;;;;;4995603;28;20177;-77
2023/12/03 10:49:31;;;;;;;45.28;26.13;;;3.20;99.90;;;;;;5011197;28;21441;-77
2023/12/03 10:51:58;;;;;;;42.90;25.70;;;3.40;99.90;;;;;;4995802;28;20056;-76
2023/12/03 10:54:25;;;;;;;44.83;25.73;;;3.60;99.90;;;;;;4982361;28;20045;-77
2023/12/03 10:56:54;;;;;;;38.78;23.65;;;3.50;99.90;;;;;;4985766;28;21263;-77
2023/12/03 10:59:30;;;;;;;44.03;23.83;;;3.60;99.90;;;;;;5005155;28;20464;-77
2023/12/03 11:02:00;;;;;;;39.38;23.50;;;3.50;99.90;;;;;;5008599;28;21218;-77
2023/12/03 11:04:52;;;;;;;37.85;23.30;;;3.60;99.90;;;;;;5004952;28;20812;-77
2023/12/03 11:07:20;;;;;;;41.03;23.60;;;3.70;99.90;;;;;;5017263;28;20046;-78
2023/12/03 11:09:49;;;;;;;36.63;22.77;;;3.70;99.90;;;;;;5006450;28;20053;-78
2023/12/03 11:12:15;;;;;;;;;;;3.70;99.90;;;;;;5007349;28;20141;-77
2023/12/03 11:14:42;;;;;;;33.83;22.33;;;3.70;99.90;;;;;;5019304;28;19971;-77
2023/12/03 11:17:17;;;;;;;37.92;23.23;;;3.70;99.90;;;;;;4999696;28;20075;-77
2023/12/03 11:19:47;;;;;;;43.10;24.67;;;3.80;99.90;;;;;;5014894;28;20046;-78
2023/12/03 11:22:29;;;;;;;36.65;22.70;;;3.80;99.90;;;;;;4986164;28;20140;-77
2023/12/03 11:25:12;;;;;;;36.85;23.42;;;3.80;99.90;;;;;;5003535;28;20052;-77
2023/12/03 11:27:42;;;;;;;38.72;23.13;;;3.90;99.90;;;;;;4988992;28;20046;-77
2023/12/03 11:30:09;;;;;;;37.95;23.10;;;3.90;99.90;;;;;;5001044;28;20038;-77
2023/12/03 11:32:35;;;;;;;36.47;23.00;;;4.00;99.90;;;;;;5005009;28;20045;-77
2023/12/03 11:35:05;;;;;;;37.67;24.13;;;4.00;99.90;;;;;;5001682;28;20683;-78
2023/12/03 11:37:31;;;;;;;35.17;23.75;;;4.00;99.90;;;;;;5018933;28;20079;-76
2023/12/03 11:40:12;;;;;;;35.70;24.02;;;4.00;99.90;;;;;;5007867;28;20033;-78
2023/12/03 11:42:45;;;;;;;33.85;22.13;;;3.90;99.90;;;;;;5011096;28;20041;-78
2023/12/03 11:45:26;;;;;;;35.97;22.88;;;3.90;99.90;;;;;;5009359;28;20045;-78
2023/12/03 11:48:09;;;;;;;33.67;22.95;;;3.80;99.90;;;;;;5003371;28;20042;-76
2023/12/03 11:50:40;;;;;;;38.78;22.52;;;3.70;99.90;;;;;;4995490;28;20046;-77
2023/12/03 11:53:07;;;;;;;32.95;21.27;;;3.70;99.90;;;;;;5013614;28;20127;-77
2023/12/03 11:55:35;;;;;;;31.38;20.98;;;3.60;99.90;;;;;;5020603;28;20041;-76
2023/12/03 11:58:05;;;;;;;34.87;22.50;;;3.60;99.90;;;;;;5010571;28;20045;-76
2023/12/03 12:00:32;;;;;;;31.80;21.27;;;3.60;99.90;;;;;;5009809;28;20140;-77
2023/12/03 12:02:59;;;;;;;31.13;20.63;;;3.50;99.90;;;;;;5005307;28;20045;-77
2023/12/03 12:05:25;;;;;;;32.38;21.80;;;3.40;99.90;;;;;;5003137;28;20148;-76
2023/12/03 12:08:01;;;;;;;33.38;21.92;;;3.40;99.90;;;;;;5010625;28;20468;-81
2023/12/03 12:10:31;;;;;;;34.45;20.92;;;3.20;99.90;;;;;;5013092;28;20073;-76
2023/12/03 12:12:58;;;;;;;31.20;20.65;;;3.40;99.90;;;;;;5011067;28;20051;-77
2023/12/03 12:15:24;;;;;;;31.42;21.00;;;3.30;99.90;;;;;;5008514;28;20044;-77
2023/12/03 12:17:51;;;;;;;33.28;20.85;;;3.10;99.90;;;;;;5011794;28;20037;-76
2023/12/03 12:20:27;;;;;;;33.00;19.73;;;3.20;99.90;;;;;;5011471;28;20096;-79
2023/12/03 12:22:54;;;;;;;31.65;20.65;;;3.20;99.90;;;;;;5012060;28;20045;-76
2023/12/03 12:25:21;;;;;;;31.17;21.40;;;3.20;99.90;;;;;;5019588;28;20095;-76
2023/12/03 12:27:51;;;;;;;31.05;21.08;;;3.20;99.90;;;;;;5007062;28;20530;-76
2023/12/03 12:30:18;;;;;;;28.98;20.00;;;3.10;99.90;;;;;;5008655;28;20124;-76
2023/12/03 12:32:45;;;;;;;31.48;19.60;;;3.10;99.90;;;;;;5017937;28;20037;-75
2023/12/03 12:35:12;;;;;;;32.03;19.85;;;3.10;99.90;;;;;;4987586;28;20041;-75
2023/12/03 12:37:37;;;;;;;33.15;19.52;;;3.10;99.90;;;;;;4980611;28;20049;-76